Latest Coastal Weather Observations for East Sale

IDV60701

Issued at 12:01 am EDT Saturday 28 February 2015 (issued every 10 minutes, with the page automatically refreshed every 10 minutes)

About coastal observations | Map of coastal stations | Coastal observations for VIC | Marine services | Other Formats
Station Details ID: 085072 Name: EAST SALE AIRPORT Lat: -38.12 Lon: 147.13 Height: 4.6 m
Data from the previous 72 hours. | See also: Recent months at East Sale
Date/Time
EDT
Temp

°C
Wind Pressure Rain
since 9am
mm
Weather Cloud Vis
km
Sea
Height
m
Swell
Dir
 
Speed
knots
Gust
knots
hPa Trend Height
m
Period
s
Dir
28/12:00am 17.2 SSE 5 5 1011.3 - - - Mostly cloudy 30 - - - -
 
Date/Time
EDT
Temp

°C
Wind Pressure Rain
since 9am
mm
Weather Cloud Vis
km
Sea
Height
m
Swell
Dir
 
Speed
knots
Gust
knots
hPa Trend Height
m
Period
s
Dir
27/11:30pm 17.3 SSE 4 6 1011.5 - 0.0 - Partly cloudy 10 - - - -
27/11:00pm 17.7 SSE 6 8 1011.2 - 0.0 - Cloudy 10 - - - -
27/10:30pm 17.7 SSE 7 9 1011.5 - 0.0 - Cloudy 10 - - - -
27/10:00pm 17.8 SSE 6 9 1011.6 - 0.0 - Cloudy 10 - - - -
27/09:30pm 18.0 SSE 7 9 1011.6 - 0.0 - Cloudy 10 - - - -
27/09:00pm 17.6 SE 5 6 1010.9 F 0.0 - Mostly cloudy 10 - - - -
27/08:30pm 18.0 SSE 6 8 1010.8 - 0.0 - Partly cloudy 10 - - - -
27/08:00pm 18.5 SE 7 10 1010.5 - 0.0 - Cloudy 10 - - - -
27/07:30pm 18.9 SSE 10 13 1010.7 - 0.0 - Partly cloudy 10 - - - -
27/07:00pm 19.3 SE 10 14 1009.8 - 0.0 - Partly cloudy 10 - - - -
27/06:30pm 20.0 SE 10 13 1010.1 - 0.0 - Partly cloudy 10 - - - -
27/06:00pm 21.2 SE 11 16 1010.2 R 0.0 - Cloudy 10 - - - -
27/05:30pm 20.8 SE 12 17 1009.6 - 0.0 - - 10 - - - -
27/05:00pm 22.0 SE 11 17 1009.7 - 0.0 - - 10 - - - -
27/04:30pm 23.3 SE 11 14 1009.5 - 0.0 - Partly cloudy 10 - - - -
27/04:00pm 23.5 SE 12 18 1009.2 - 0.0 - Mostly clear 10 - - - -
27/03:30pm 23.8 SSE 12 16 1009.4 - 0.0 - Mostly clear 10 - - - -
27/03:00pm 24.8 SW 6 10 1009.3 F 0.0 - Mostly clear 10 - - - -
27/02:30pm 24.3 S 5 8 1009.4 - 0.0 - Mostly clear 10 - - - -
27/02:00pm 23.9 W 5 8 1009.8 - 0.0 - Mostly clear 10 - - - -
27/01:30pm 23.5 WSW 5 8 1010.2 - 0.0 - Partly cloudy 10 - - - -
27/01:00pm 21.9 WNW 5 9 1010.6 - 0.0 - Partly cloudy 10 - - - -
27/12:30pm 22.3 SW 6 9 1011.0 - 0.0 - Partly cloudy 10 - - - -
27/12:00pm 20.8 WNW 5 7 1011.2 R 0.0 - Mostly cloudy 10 - - - -
27/11:30am 20.3 W 6 9 1011.4 - 0.0 - Partly cloudy 10 - - - -
27/11:00am 20.2 WNW 4 7 1011.4 - 0.0 - Partly cloudy 10 - - - -
27/10:30am 19.9 WNW 5 6 1011.5 - 0.0 - Partly cloudy 10 - - - -
27/10:00am 18.7 W 4 6 1011.4 - 0.0 - Mostly cloudy 10 - - - -
27/09:00am 16.4 SW 4 5 1011.2 R 0.0 - Mostly cloudy 10 - - - -
27/08:30am 15.8 WSW 4 5 1011.2 - 0.0 - Mostly cloudy 10 - - - -
27/08:00am 15.6 WSW 1 4 1010.8 - 0.0 - Mostly cloudy 10 - - - -
27/07:30am 15.6 WSW 3 4 1010.9 - 0.0 - Partly cloudy 10 - - - -
27/07:00am 15.2 S 5 6 1010.4 - 0.0 - Mostly cloudy 10 - - - -
27/06:30am 15.1 S 6 7 1010.3 - 0.0 - Cloudy 10 - - - -
27/06:00am 14.5 SSW 5 6 1010.1 F 0.0 - Cloudy 10 - - - -
27/05:30am 14.0 SSW 6 6 1010.1 - 0.0 - Partly cloudy 10 - - - -
27/05:12am 13.5 SSW 4 4 1010.1 - 0.0 - Partly cloudy 10 - - - -
27/05:00am 12.2 SW 3 4 1010.1 - 0.0 - Partly cloudy 3 - - - -
27/04:52am 12.0 SW 2 3 1010.1 - 0.0 - Partly cloudy 5 - - - -
27/04:30am 12.0 CALM 0 0 1010.2 - 0.0 - Partly cloudy 10 - - - -
27/04:00am 12.7 WNW 3 4 1010.3 - 0.0 - - 10 - - - -
27/03:30am 13.6 SSE 3 4 1010.3 - 0.0 - Partly cloudy 10 - - - -
27/03:00am 13.7 E 2 4 1010.8 S 0.0 - Mostly clear 10 - - - -
27/02:30am 13.9 E 3 3 1011.1 - 0.0 - Partly cloudy 10 - - - -
27/02:00am 13.9 E 2 3 1011.3 - 0.0 - Partly cloudy 10 - - - -
27/01:30am 14.2 CALM 0 0 1011.5 - 0.0 - Partly cloudy 10 - - - -
27/01:00am 14.3 CALM 0 0 1011.8 - 0.0 - Partly cloudy 10 - - - -
27/12:30am 14.9 CALM 0 3 1011.8 - 0.0 - Partly cloudy 10 - - - -
27/12:00am 15.9 SE 3 6 1011.7 R 0.0 - Cloudy 22 - - - -
 
Date/Time
EDT
Temp

°C
Wind Pressure Rain
since 9am
mm
Weather Cloud Vis
km
Sea
Height
m
Swell
Dir
 
Speed
knots
Gust
knots
hPa Trend Height
m
Period
s
Dir
26/11:30pm 14.9 ENE 4 4 1011.7 - 0.0 - Partly cloudy 10 - - - -
26/11:00pm 15.3 E 5 5 1011.9 - 0.0 - - 10 - - - -
26/10:30pm 15.9 ENE 6 6 1011.9 - 0.0 - Partly cloudy 10 - - - -
26/10:00pm 16.3 E 5 7 1011.7 - 0.0 - Partly cloudy 10 - - - -
26/09:30pm 17.2 ENE 6 7 1011.5 - 0.0 - Cloudy 10 - - - -
26/09:00pm 18.0 ENE 4 4 1011.0 R 0.0 - Cloudy 10 - - - -
26/08:30pm 18.5 SE 5 7 1010.6 - 0.0 - Partly cloudy 10 - - - -
26/08:00pm 18.9 SE 6 9 1010.1 - 0.0 - Partly cloudy 10 - - - -
26/07:30pm 19.6 SSE 9 11 1009.5 - 0.0 - Partly cloudy 10 - - - -
26/07:00pm 20.5 SSE 9 12 1009.1 - 0.0 - Partly cloudy 10 - - - -
26/06:30pm 21.5 SSE 9 13 1008.9 - 0.0 - Cloudy 10 - - - -
26/06:00pm 21.8 SSE 9 12 1008.6 R 0.0 - Cloudy 10 - - - -
26/05:30pm 21.9 SSE 10 14 1008.7 - 0.0 - Partly cloudy 10 - - - -
26/05:00pm 23.1 SW 10 14 1008.7 - 0.0 - Cloudy 10 - - - -
26/04:30pm 23.2 W 12 18 1008.5 - 0.0 - Cloudy 10 - - - -
26/04:00pm 23.7 W 13 18 1008.5 - 0.0 - Mostly cloudy 10 - - - -
26/03:30pm 23.9 W 11 17 1008.6 - 0.0 - Mostly cloudy 10 - - - -
26/03:00pm 23.9 WSW 12 19 1008.6 R 0.0 - Cloudy 10 - - - -
26/02:30pm 23.7 WSW 9 14 1008.8 - 0.0 - Mostly cloudy 10 - - - -
26/02:00pm 24.6 W 15 20 1008.8 - 0.0 - Partly cloudy 10 - - - -
26/01:30pm 24.6 WSW 14 21 1009.0 - 0.0 - Mostly clear 10 - - - -
26/01:00pm 24.1 WSW 16 21 1009.0 - 0.0 - Mostly clear 10 - - - -
26/12:30pm 23.5 WSW 12 19 1009.2 - 0.0 - Mostly clear 10 - - - -
26/12:00pm 22.7 WSW 15 22 1009.5 R 0.0 - Mostly cloudy 10 - - - -
26/11:30am 20.9 WSW 17 23 1009.8 - 0.0 - - 10 - - - -
26/11:00am 20.8 W 15 19 1009.8 - 0.0 - - 10 - - - -
26/10:30am 19.3 W 16 22 1009.6 - 0.0 - - 10 - - - -
26/10:00am 18.6 W 14 18 1009.5 - 0.0 - - 10 - - - -
26/09:30am 18.0 W 14 20 1009.3 - 0.0 - - 10 - - - -
26/09:00am 17.5 W 14 19 1009.3 R 0.0 - Mostly cloudy 10 - - - -
26/08:30am 17.3 W 11 16 1008.8 - 0.0 - - 10 - - - -
26/08:00am 15.8 WSW 10 14 1008.7 - 0.0 - - 10 - - - -
26/07:30am 15.6 WNW 7 9 1008.6 - 0.0 - - 10 - - - -
26/07:00am 15.4 WNW 5 7 1008.4 - 0.0 - - 10 - - - -
26/06:30am 14.4 W 7 10 1008.2 - 0.0 - - 10 - - - -
26/06:00am 14.3 WNW 7 8 1008.0 F 0.0 - Mostly clear 10 - - - -
26/05:30am 13.9 WNW 6 6 1007.9 - 0.0 - - 10 - - - -
26/05:00am 13.3 WNW 5 6 1008.0 - 0.0 - - 10 - - - -
26/04:30am 13.4 WNW 6 7 1008.0 - 0.0 - - 10 - - - -
26/04:00am 13.9 NW 4 4 1008.1 - 0.0 - - 10 - - - -
26/03:56am 13.8 NW 3 4 1008.0 - 0.0 - - 10 - - - -
26/03:37am 14.1 NNW 5 6 1008.1 - 0.0 - - 5 - - - -
26/03:30am 14.0 NNW 3 6 1008.4 - 0.0 - - 7 - - - -
26/03:00am 14.2 CALM 0 0 1008.7 F 0.0 - - 10 - - - -
26/02:30am 14.8 CALM 0 0 1009.1 - 0.0 - - 10 - - - -
26/02:00am 14.9 N 4 4 1009.5 - 0.0 - - 10 - - - -
26/01:30am 15.7 NNE 4 4 1009.8 - 0.0 - - 10 - - - -
26/01:00am 15.8 E 3 4 1009.9 - 0.0 - - 10 - - - -
26/12:30am 16.6 ESE 3 4 1010.6 - 0.0 - - 10 - - - -
26/12:00am 17.2 ENE 4 6 1011.1 F 0.0 - - 10 - - - -
 
Date/Time
EDT
Temp

°C
Wind Pressure Rain
since 9am
mm
Weather Cloud Vis
km
Sea
Height
m
Swell
Dir
 
Speed
knots
Gust
knots
hPa Trend Height
m
Period
s
Dir
25/11:30pm 17.3 ENE 6 8 1011.2 - 0.0 - - 10 - - - -
25/11:00pm 17.8 ENE 9 12 1011.4 - 0.0 - Mostly clear 10 - - - -
25/10:30pm 18.2 ENE 9 12 1011.8 - 0.0 - Mostly clear 10 - - - -
25/10:00pm 18.2 ENE 11 14 1012.0 - 0.0 - Mostly clear 10 - - - -
25/09:30pm 18.2 E 11 14 1012.3 - 0.0 - Mostly clear 10 - - - -
25/09:00pm 18.4 E 13 15 1012.5 F 0.0 - Mostly clear 10 - - - -
25/08:30pm 18.3 E 13 17 1012.4 - 0.0 - Mostly clear 10 - - - -
25/08:00pm 18.6 E 13 17 1012.5 - 0.0 - Mostly clear 10 - - - -
25/07:30pm 19.2 E 13 17 1012.8 - 0.0 - Mostly clear 10 - - - -
25/07:00pm 20.0 E 15 19 1012.7 - 0.0 - Mostly clear 10 - - - -
25/06:30pm 20.7 E 18 22 1012.8 - 0.0 - Mostly clear 10 - - - -
25/06:00pm 21.2 E 18 23 1013.2 F 0.0 - Mostly clear 10 - - - -
25/05:30pm 21.5 E 18 23 1013.4 - 0.0 - Mostly clear 10 - - - -
25/05:00pm 21.3 E 19 24 1013.7 - 0.0 - Mostly clear 10 - - - -
25/04:30pm 21.9 E 19 24 1014.0 - 0.0 - Mostly clear 10 - - - -
25/04:00pm 21.9 E 19 23 1014.5 - 0.0 - Mostly clear 10 - - - -
25/03:30pm 21.4 E 21 26 1015.0 - 0.0 - Mostly clear 10 - - - -
25/03:00pm 22.1 E 20 26 1015.6 F 0.0 - Cloudy 10 - - - -
25/02:30pm 22.2 E 21 25 1016.1 - 0.0 - Partly cloudy 10 - - - -
25/02:00pm 21.6 E 22 26 1016.3 - 0.0 - Partly cloudy 10 - - - -
25/01:30pm 21.9 E 21 28 1016.5 - 0.0 - Partly cloudy 10 - - - -
25/01:00pm 21.4 E 21 28 1016.9 - 0.0 - Mostly clear 10 - - - -
25/12:30pm 21.9 E 20 26 1017.3 - 0.0 - Partly cloudy 10 - - - -
25/12:00pm 20.9 E 20 25 1017.7 F 0.0 - Cloudy 10 - - - -
25/11:30am 20.8 E 21 26 1018.2 - 0.0 - Mostly clear 10 - - - -
25/11:00am 20.1 ENE 19 25 1018.2 - 0.0 - Partly cloudy 10 - - - -
25/10:30am 19.7 E 17 23 1018.4 - 0.0 - Partly cloudy 10 - - - -
25/10:00am 19.5 E 18 23 1018.4 - 0.0 - Partly cloudy 10 - - - -
25/09:30am 19.0 ENE 17 22 1018.7 - 0.0 - Partly cloudy 10 - - - -
25/09:00am 18.8 ENE 15 19 1018.5 F 2.4 - Cloudy 10 - - - -
25/08:30am 18.5 E 16 20 1018.6 - 2.4 - Mostly clear 10 - - - -
25/08:00am 18.1 E 16 22 1018.6 - 2.4 - Partly cloudy 10 - - - -
25/07:30am 18.1 E 16 21 1018.3 - 2.4 - Cloudy 10 - - - -
25/07:00am 17.9 E 16 20 1018.3 - 2.4 - Cloudy 10 - - - -
25/06:30am 17.7 E 18 22 1018.1 - 2.4 - Cloudy 10 - - - -
25/06:00am 17.6 E 17 23 1017.9 F 2.4 - Cloudy 10 - - - -
25/05:30am 17.5 E 17 21 1017.9 - 2.4 - Partly cloudy 10 - - - -
25/05:00am 17.5 E 15 19 1017.7 - 2.4 - Partly cloudy 10 - - - -
25/04:30am 17.3 ENE 10 14 1017.7 - 2.4 - Partly cloudy 10 - - - -
25/04:00am 17.4 NE 7 8 1018.0 - 2.4 - Partly cloudy 10 - - - -
25/03:30am 16.7 NE 7 9 1018.1 - 2.4 - Cloudy 10 - - - -
25/03:00am 16.3 NE 7 9 1018.4 F 2.4 - Cloudy 10 - - - -
25/02:30am 16.3 NE 9 12 1018.8 - 2.4 - Cloudy 10 - - - -
25/02:00am 16.2 ENE 10 13 1019.0 - 2.4 - Cloudy 10 - - - -
25/01:30am 16.1 ENE 10 13 1019.1 - 2.4 - Cloudy 10 - - - -
25/01:00am 16.2 ENE 10 12 1019.3 - 2.4 - Cloudy 10 - - - -
25/12:30am 15.9 ENE 10 12 1019.8 - 2.4 - Cloudy 10 - - - -

Other Formats:

Comma delimited format used in spreadsheet applications
http://www.bom.gov.au/fwo/IDV60701/IDV60701.94907.axf

JavaScript Object Notation format (JSON) in row-major order
http://www.bom.gov.au/fwo/IDV60701/IDV60701.94907.json